createdAt,value
2023-03-19T00:00:49.561Z,6.68
2023-03-19T00:01:49.561Z,6.68
2023-03-19T00:02:49.604Z,6.68
2023-03-19T00:03:49.538Z,6.68
2023-03-19T00:04:49.500Z,6.69
2023-03-19T00:05:49.494Z,6.69
2023-03-19T00:06:49.481Z,6.68
2023-03-19T00:07:49.452Z,6.68
2023-03-19T00:08:49.459Z,6.68
2023-03-19T00:09:49.425Z,6.68
2023-03-19T00:10:49.463Z,6.68
2023-03-19T00:11:49.431Z,6.68
2023-03-19T00:12:49.382Z,6.68
2023-03-19T00:13:49.385Z,6.69
2023-03-19T00:14:49.359Z,6.68
2023-03-19T00:15:49.353Z,6.65
2023-03-19T00:16:49.378Z,6.65
2023-03-19T00:17:49.319Z,6.64
2023-03-19T00:18:49.347Z,6.64
2023-03-19T00:19:49.283Z,6.61
2023-03-19T00:20:49.305Z,6.61
2023-03-19T00:21:49.262Z,6.61
2023-03-19T00:22:49.279Z,6.58
2023-03-19T00:23:49.263Z,6.57
2023-03-19T00:24:49.235Z,6.55
2023-03-19T00:25:49.225Z,6.54
2023-03-19T00:26:49.203Z,6.55
2023-03-19T00:27:49.198Z,6.54
2023-03-19T00:28:49.195Z,6.53
2023-03-19T00:29:49.172Z,6.51
2023-03-19T00:30:49.192Z,6.48
2023-03-19T00:31:49.121Z,6.46
2023-03-19T00:32:49.155Z,6.45
2023-03-19T00:33:49.099Z,6.45
2023-03-19T00:34:49.123Z,6.42
2023-03-19T00:35:49.126Z,6.40
2023-03-19T00:36:49.074Z,6.42
2023-03-19T00:37:49.085Z,6.42
2023-03-19T00:38:49.044Z,6.43
2023-03-19T00:39:49.028Z,6.43
2023-03-19T00:40:49.017Z,6.43
2023-03-19T00:41:49.001Z,6.43
2023-03-19T00:42:48.991Z,6.42
2023-03-19T00:43:48.982Z,6.42
2023-03-19T00:44:48.982Z,6.40
2023-03-19T00:45:48.964Z,6.39
2023-03-19T00:46:48.938Z,6.38
2023-03-19T00:47:48.922Z,6.36
2023-03-19T00:48:48.917Z,6.35
2023-03-19T00:49:48.902Z,6.33
2023-03-19T00:50:48.908Z,6.32
2023-03-19T00:51:48.918Z,6.32
2023-03-19T00:52:48.854Z,6.33
2023-03-19T00:53:48.857Z,6.32
2023-03-19T00:54:48.826Z,6.32
2023-03-19T00:55:48.825Z,6.30
2023-03-19T00:56:48.811Z,6.30
2023-03-19T00:57:48.793Z,6.32
2023-03-19T00:58:48.801Z,6.32
2023-03-19T00:59:48.757Z,6.33
2023-03-19T01:00:48.777Z,6.33
2023-03-19T01:01:48.794Z,6.33
2023-03-19T01:02:48.720Z,6.35
2023-03-19T01:03:48.720Z,6.36
2023-03-19T01:04:48.752Z,6.36
2023-03-19T01:05:54.914Z,6.35
2023-03-19T01:06:48.662Z,6.33
2023-03-19T01:07:48.655Z,6.33
2023-03-19T01:08:48.642Z,6.32
2023-03-19T01:09:48.624Z,6.28
2023-03-19T01:10:48.658Z,6.30
2023-03-19T01:11:48.598Z,6.28
2023-03-19T01:12:48.581Z,6.28
2023-03-19T01:13:48.567Z,6.27
2023-03-19T01:14:48.564Z,6.27
2023-03-19T01:15:48.557Z,6.27
2023-03-19T01:16:48.539Z,6.27
2023-03-19T01:17:48.529Z,6.25
2023-03-19T01:18:48.512Z,6.24
2023-03-19T01:19:48.503Z,6.24
2023-03-19T01:20:48.499Z,6.24
2023-03-19T01:21:48.468Z,6.24
2023-03-19T01:22:48.467Z,6.20
2023-03-19T01:23:48.444Z,6.19
2023-03-19T01:24:48.417Z,6.17
2023-03-19T01:25:48.427Z,6.19
2023-03-19T01:26:48.420Z,6.17
2023-03-19T01:27:48.387Z,6.16
2023-03-19T01:28:48.373Z,6.13
2023-03-19T01:29:48.365Z,6.16
2023-03-19T01:30:48.427Z,6.13
2023-03-19T01:31:48.360Z,6.11
2023-03-19T01:32:48.352Z,6.11
2023-03-19T01:33:48.325Z,6.11
2023-03-19T01:34:48.329Z,6.10
2023-03-19T01:35:48.364Z,6.11
2023-03-19T01:36:48.301Z,6.08
2023-03-19T01:37:48.258Z,6.08
2023-03-19T01:38:48.283Z,6.05
2023-03-19T01:39:48.259Z,6.02
2023-03-19T01:40:48.255Z,6.01
2023-03-19T01:41:48.206Z,6.01
2023-03-19T01:42:48.185Z,5.98
2023-03-19T01:43:48.190Z,5.95
2023-03-19T01:44:48.169Z,5.95
2023-03-19T01:45:51.097Z,5.92
2023-03-19T01:46:48.214Z,5.88
2023-03-19T01:47:48.116Z,5.85
2023-03-19T01:48:48.134Z,5.84
2023-03-19T01:49:48.118Z,5.81
2023-03-19T01:50:48.084Z,5.77
2023-03-19T01:51:48.072Z,5.77
2023-03-19T01:52:48.050Z,5.74
2023-03-19T01:53:48.073Z,5.70
2023-03-19T01:54:48.031Z,5.69
2023-03-19T01:55:48.041Z,5.67
2023-03-19T01:56:48.009Z,5.66
2023-03-19T01:57:48.005Z,5.65
2023-03-19T01:58:47.971Z,5.63
2023-03-19T01:59:47.978Z,5.65
2023-03-19T02:00:47.964Z,5.63
2023-03-19T02:01:48.085Z,5.63
2023-03-19T02:02:47.927Z,5.62
2023-03-19T02:03:47.909Z,5.60
2023-03-19T02:04:47.935Z,5.59
2023-03-19T02:05:47.909Z,5.56
2023-03-19T02:06:47.878Z,5.52
2023-03-19T02:07:47.896Z,5.51
2023-03-19T02:08:47.858Z,5.48
2023-03-19T02:09:47.851Z,5.47
2023-03-19T02:10:47.832Z,5.48
2023-03-19T02:11:47.807Z,5.45
2023-03-19T02:12:47.836Z,5.45
2023-03-19T02:13:47.881Z,5.42
2023-03-19T02:14:47.801Z,5.40
2023-03-19T02:15:47.826Z,5.35
2023-03-19T02:16:47.748Z,5.32
2023-03-19T02:17:47.733Z,5.30
2023-03-19T02:18:47.716Z,5.29
2023-03-19T02:19:47.719Z,5.27
2023-03-19T02:20:47.725Z,5.24
2023-03-19T02:21:47.668Z,5.24
2023-03-19T02:22:47.650Z,5.24
2023-03-19T02:23:47.669Z,5.22
2023-03-19T02:24:47.654Z,5.23
2023-03-19T02:25:47.663Z,5.22
2023-03-19T02:26:47.600Z,5.22
2023-03-19T02:27:47.629Z,5.19
2023-03-19T02:28:47.586Z,5.19
2023-03-19T02:29:49.328Z,5.19
2023-03-19T02:30:47.563Z,5.20
2023-03-19T02:31:47.608Z,5.20
2023-03-19T02:32:47.581Z,5.20
2023-03-19T02:33:47.517Z,5.22
2023-03-19T02:34:47.529Z,5.22
2023-03-19T02:35:47.546Z,5.23
2023-03-19T02:36:47.468Z,5.24
2023-03-19T02:37:47.465Z,5.26
2023-03-19T02:38:47.444Z,5.27
2023-03-19T02:39:47.453Z,5.30
2023-03-19T02:40:47.447Z,5.32
2023-03-19T02:41:47.435Z,5.35
2023-03-19T02:42:47.392Z,5.35
2023-03-19T02:43:47.414Z,5.37
2023-03-19T02:44:47.374Z,5.40
2023-03-19T02:45:47.364Z,5.42
2023-03-19T02:46:47.396Z,5.42
2023-03-19T02:47:47.342Z,5.45
2023-03-19T02:48:47.327Z,5.47
2023-03-19T02:49:47.306Z,5.48
2023-03-19T02:50:47.323Z,5.49
2023-03-19T02:51:47.280Z,5.51
2023-03-19T02:52:47.263Z,5.55
2023-03-19T02:53:47.251Z,5.58
2023-03-19T02:54:47.230Z,5.59
2023-03-19T02:55:47.234Z,5.62
2023-03-19T02:56:47.219Z,5.65
2023-03-19T02:57:47.190Z,5.65
2023-03-19T02:58:47.181Z,5.65
2023-03-19T02:59:47.184Z,5.67
2023-03-19T03:00:47.214Z,5.69
2023-03-19T03:01:47.282Z,5.70
2023-03-19T03:02:47.139Z,5.74
2023-03-19T03:03:47.123Z,5.74
2023-03-19T03:04:47.109Z,5.77
2023-03-19T03:05:47.123Z,5.81
2023-03-19T03:06:47.140Z,5.81
2023-03-19T03:07:47.083Z,5.84
2023-03-19T03:08:47.075Z,5.84
2023-03-19T03:09:47.073Z,5.87
2023-03-19T03:10:47.047Z,5.88
2023-03-19T03:11:47.027Z,5.87
2023-03-19T03:12:47.006Z,5.87
2023-03-19T03:13:47.001Z,5.85
2023-03-19T03:14:46.981Z,5.87
2023-03-19T03:15:46.998Z,5.87
2023-03-19T03:16:46.991Z,5.87
2023-03-19T03:17:46.949Z,5.87
2023-03-19T03:18:46.950Z,5.88
2023-03-19T03:19:46.918Z,5.88
2023-03-19T03:20:46.945Z,5.88
2023-03-19T03:21:46.903Z,5.90
2023-03-19T03:22:46.898Z,5.92
2023-03-19T03:23:46.882Z,5.92
2023-03-19T03:24:46.859Z,5.95
2023-03-19T03:25:46.845Z,5.96
2023-03-19T03:26:46.836Z,5.99
2023-03-19T03:27:46.815Z,6.01
2023-03-19T03:28:46.825Z,6.02
2023-03-19T03:29:46.791Z,6.06
2023-03-19T03:30:46.797Z,6.08
2023-03-19T03:31:46.876Z,6.10
2023-03-19T03:32:46.776Z,6.10
2023-03-19T03:33:46.734Z,6.10
2023-03-19T03:34:46.718Z,6.11
2023-03-19T03:35:46.750Z,6.11
2023-03-19T03:36:46.697Z,6.11
2023-03-19T03:37:46.697Z,6.11
2023-03-19T03:38:46.675Z,6.10
2023-03-19T03:39:46.659Z,6.10
2023-03-19T03:40:46.659Z,6.10
2023-03-19T03:41:46.634Z,6.08
2023-03-19T03:42:46.621Z,6.10
2023-03-19T03:43:46.604Z,6.10
2023-03-19T03:44:46.604Z,6.10
2023-03-19T03:45:46.588Z,6.10
2023-03-19T03:46:46.581Z,6.11
2023-03-19T03:47:46.550Z,6.10
2023-03-19T03:48:46.559Z,6.13
2023-03-19T03:49:46.546Z,6.13
2023-03-19T03:50:46.520Z,6.14
2023-03-19T03:51:46.507Z,6.14
2023-03-19T03:52:46.485Z,6.16
2023-03-19T03:53:46.504Z,6.17
2023-03-19T03:54:46.471Z,6.17
2023-03-19T03:55:46.448Z,6.20
2023-03-19T03:56:46.439Z,6.20
2023-03-19T03:57:46.412Z,6.20
2023-03-19T03:58:46.410Z,6.20
2023-03-19T03:59:46.391Z,6.19
2023-03-19T04:00:46.395Z,6.17
2023-03-19T04:01:46.363Z,6.19
2023-03-19T04:02:46.394Z,6.14
2023-03-19T04:03:46.351Z,6.16
2023-03-19T04:04:46.366Z,6.14
2023-03-19T04:05:46.333Z,6.14
2023-03-19T04:06:46.336Z,6.13
2023-03-19T04:07:46.301Z,6.11
2023-03-19T04:08:46.317Z,6.11
2023-03-19T04:09:46.272Z,6.08
2023-03-19T04:10:46.262Z,6.06
2023-03-19T04:11:46.244Z,6.05
2023-03-19T04:12:46.244Z,6.03
2023-03-19T04:13:46.200Z,6.02
2023-03-19T04:14:46.199Z,6.02
2023-03-19T04:15:46.211Z,5.99
2023-03-19T04:16:46.188Z,5.96
2023-03-19T04:17:46.158Z,5.93
2023-03-19T04:18:46.152Z,5.93
2023-03-19T04:19:46.151Z,5.95
2023-03-19T04:20:46.157Z,5.93
2023-03-19T04:21:46.108Z,5.95
2023-03-19T04:22:46.090Z,5.95
2023-03-19T04:23:46.113Z,5.93
2023-03-19T04:24:46.080Z,5.95
2023-03-19T04:25:46.060Z,5.93
2023-03-19T04:26:46.051Z,5.93
2023-03-19T04:27:46.032Z,5.92
2023-03-19T04:28:46.033Z,5.87
2023-03-19T04:29:46.009Z,5.87
2023-03-19T04:30:46.039Z,5.87
2023-03-19T04:31:45.978Z,5.85
2023-03-19T04:32:45.968Z,5.81
2023-03-19T04:33:45.938Z,5.80
2023-03-19T04:34:45.939Z,5.75
2023-03-19T04:35:45.996Z,5.73
2023-03-19T04:36:45.903Z,5.67
2023-03-19T04:37:45.889Z,5.66
2023-03-19T04:38:45.889Z,5.62
2023-03-19T04:39:45.878Z,5.59
2023-03-19T04:40:45.866Z,5.58
2023-03-19T04:41:45.847Z,5.55
2023-03-19T04:42:45.837Z,5.49
2023-03-19T04:43:45.808Z,5.47
2023-03-19T04:44:45.818Z,5.44
2023-03-19T04:45:45.841Z,5.40
2023-03-19T04:46:45.788Z,5.38
2023-03-19T04:47:45.755Z,5.35
2023-03-19T04:48:45.746Z,5.32
2023-03-19T04:49:45.735Z,5.32
2023-03-19T04:50:45.747Z,5.29
2023-03-19T04:51:45.714Z,5.26
2023-03-19T04:52:45.694Z,5.26
2023-03-19T04:53:45.681Z,5.24
2023-03-19T04:54:45.679Z,5.23
2023-03-19T04:55:45.664Z,5.22
2023-03-19T04:56:45.648Z,5.19
2023-03-19T04:57:45.657Z,5.19
2023-03-19T04:58:45.613Z,5.19
2023-03-19T04:59:45.604Z,5.17
2023-03-19T05:00:45.629Z,5.17
2023-03-19T05:01:45.636Z,5.15
2023-03-19T05:02:45.607Z,5.14
2023-03-19T05:03:45.610Z,5.12
2023-03-19T05:04:45.544Z,5.09
2023-03-19T05:05:45.555Z,5.08
2023-03-19T05:06:45.512Z,5.04
2023-03-19T05:07:45.493Z,5.01
2023-03-19T05:08:45.481Z,4.99
2023-03-19T05:09:45.465Z,4.94
2023-03-19T05:10:45.482Z,4.93
2023-03-19T05:11:45.455Z,4.91
2023-03-19T05:12:45.444Z,4.88
2023-03-19T05:13:45.414Z,4.86
2023-03-19T05:14:45.405Z,4.84
2023-03-19T05:15:45.480Z,4.83
2023-03-19T05:16:45.400Z,4.77
2023-03-19T05:17:45.388Z,4.77
2023-03-19T05:18:45.398Z,4.77
2023-03-19T05:19:45.335Z,4.74
2023-03-19T05:20:45.349Z,4.75
2023-03-19T05:21:45.329Z,4.75
2023-03-19T05:22:45.301Z,4.72
2023-03-19T05:23:45.276Z,4.74
2023-03-19T05:24:45.270Z,4.75
2023-03-19T05:25:45.310Z,4.75
2023-03-19T05:26:45.242Z,4.77
2023-03-19T05:27:45.219Z,4.80
2023-03-19T05:28:45.247Z,4.83
2023-03-19T05:29:45.217Z,4.84
2023-03-19T05:30:45.372Z,4.87
2023-03-19T05:31:45.180Z,4.90
2023-03-19T05:32:45.193Z,4.90
2023-03-19T05:33:45.152Z,4.91
2023-03-19T05:34:45.274Z,4.93
2023-03-19T05:35:45.158Z,4.93
2023-03-19T05:36:45.124Z,4.94
2023-03-19T05:37:45.147Z,4.96
2023-03-19T05:38:45.101Z,4.96
2023-03-19T05:39:45.102Z,4.99
2023-03-19T05:40:45.070Z,5.02
2023-03-19T05:41:45.052Z,5.05
2023-03-19T05:42:45.033Z,5.08
2023-03-19T05:43:45.041Z,5.09
2023-03-19T05:44:45.010Z,5.12
2023-03-19T05:45:44.999Z,5.15
2023-03-19T05:46:45.100Z,5.17
2023-03-19T05:47:45.002Z,5.17
2023-03-19T05:48:44.955Z,5.17
2023-03-19T05:49:44.936Z,5.20
2023-03-19T05:50:44.953Z,5.22
2023-03-19T05:51:44.936Z,5.23
2023-03-19T05:52:44.909Z,5.26
2023-03-19T05:53:44.874Z,5.29
2023-03-19T05:54:44.892Z,5.30
2023-03-19T05:55:44.875Z,5.32
2023-03-19T05:56:44.843Z,5.37
2023-03-19T05:57:44.822Z,5.41
2023-03-19T05:58:44.826Z,5.45
2023-03-19T05:59:44.814Z,5.48
2023-03-19T06:00:44.802Z,5.52
2023-03-19T06:01:44.813Z,5.59
2023-03-19T06:02:44.855Z,5.63
2023-03-19T06:03:44.771Z,5.73
2023-03-19T06:04:44.759Z,5.80
2023-03-19T06:05:44.739Z,5.88
2023-03-19T06:06:44.710Z,5.95
2023-03-19T06:07:44.711Z,6.06
2023-03-19T06:08:44.698Z,6.20
2023-03-19T06:09:44.671Z,6.28
2023-03-19T06:10:44.669Z,6.39
2023-03-19T06:11:44.652Z,6.51
2023-03-19T06:12:44.635Z,6.60
2023-03-19T06:13:44.629Z,6.71
2023-03-19T06:14:44.599Z,6.83
2023-03-19T06:15:44.662Z,6.99
2023-03-19T06:16:44.579Z,7.16
2023-03-19T06:17:44.571Z,7.33
2023-03-19T06:18:44.557Z,7.55
2023-03-19T06:19:44.537Z,7.82
2023-03-19T06:20:44.562Z,8.10
2023-03-19T06:21:44.509Z,8.37
2023-03-19T06:22:44.513Z,8.58
2023-03-19T06:23:44.545Z,8.78
2023-03-19T06:24:44.479Z,8.94
2023-03-19T06:25:44.499Z,9.06
2023-03-19T06:26:44.458Z,9.15
2023-03-19T06:27:44.451Z,9.24
2023-03-19T06:28:44.416Z,9.35
2023-03-19T06:29:44.417Z,9.42
2023-03-19T06:30:44.443Z,9.48
2023-03-19T06:31:44.418Z,9.55
2023-03-19T06:32:44.430Z,9.58
2023-03-19T06:33:44.358Z,9.62
2023-03-19T06:34:44.349Z,9.71
2023-03-19T06:35:44.365Z,9.81
2023-03-19T06:36:44.341Z,9.93
2023-03-19T06:37:44.299Z,10.04
2023-03-19T06:38:44.295Z,10.18
2023-03-19T06:39:44.269Z,10.29
2023-03-19T06:40:44.281Z,10.47
2023-03-19T06:41:44.255Z,10.66
2023-03-19T06:42:44.254Z,10.87
2023-03-19T06:43:44.232Z,11.12
2023-03-19T06:44:44.211Z,11.30
2023-03-19T06:45:44.235Z,11.51
2023-03-19T06:46:44.185Z,11.77
2023-03-19T06:47:44.173Z,12.00
2023-03-19T06:48:44.172Z,12.22
2023-03-19T06:49:44.142Z,12.41
2023-03-19T06:50:44.152Z,12.71
2023-03-19T06:51:44.115Z,12.95
2023-03-19T06:52:44.110Z,13.19
2023-03-19T06:53:44.094Z,13.46
2023-03-19T06:54:44.074Z,13.66
2023-03-19T06:55:44.092Z,13.87
2023-03-19T06:56:44.069Z,13.91
2023-03-19T06:57:44.056Z,14.12
2023-03-19T06:58:44.034Z,14.31
2023-03-19T06:59:44.024Z,14.53
2023-03-19T07:00:44.104Z,14.69
2023-03-19T07:01:44.010Z,14.85
2023-03-19T07:02:43.970Z,15.00
2023-03-19T07:03:44.029Z,15.18
2023-03-19T07:04:43.953Z,15.27
2023-03-19T07:05:43.947Z,15.23
2023-03-19T07:06:43.912Z,15.27
2023-03-19T07:07:43.895Z,15.33
2023-03-19T07:08:43.910Z,15.44
2023-03-19T07:09:43.860Z,15.52
2023-03-19T07:10:43.870Z,15.56
2023-03-19T07:11:43.840Z,15.59
2023-03-19T07:12:43.845Z,15.59
2023-03-19T07:13:43.820Z,15.59
2023-03-19T07:14:43.816Z,15.66
2023-03-19T07:15:43.815Z,15.76
2023-03-19T07:16:43.815Z,15.81
2023-03-19T07:17:43.776Z,15.89
2023-03-19T07:18:43.757Z,16.04
2023-03-19T07:19:43.779Z,16.18
2023-03-19T07:20:43.738Z,16.37
2023-03-19T07:21:43.748Z,16.51
2023-03-19T07:22:43.701Z,16.66
2023-03-19T07:23:43.680Z,16.81
2023-03-19T07:24:43.679Z,16.95
2023-03-19T07:25:43.683Z,17.10
2023-03-19T07:26:43.651Z,17.22
2023-03-19T07:27:43.630Z,17.38
2023-03-19T07:28:43.635Z,17.53
2023-03-19T07:29:43.608Z,17.62
2023-03-19T07:30:43.610Z,17.79
2023-03-19T07:31:43.691Z,17.94
2023-03-19T07:32:43.636Z,18.11
2023-03-19T07:33:43.561Z,18.23
2023-03-19T07:34:43.552Z,18.39
2023-03-19T07:35:43.540Z,18.54
2023-03-19T07:36:43.520Z,18.59
2023-03-19T07:37:43.490Z,18.71
2023-03-19T07:38:43.480Z,18.78
2023-03-19T07:39:43.467Z,18.86
2023-03-19T07:40:54.845Z,19.05
2023-03-19T07:41:44.446Z,19.30
2023-03-19T07:42:45.156Z,19.58
2023-03-19T07:43:43.417Z,19.89
2023-03-19T07:44:43.408Z,20.20
2023-03-19T07:45:43.436Z,20.54
2023-03-19T07:46:43.370Z,20.82
2023-03-19T07:47:43.370Z,20.98
2023-03-19T07:48:43.352Z,21.08
2023-03-19T07:49:43.340Z,21.21
2023-03-19T07:50:43.333Z,21.36
2023-03-19T07:51:43.332Z,21.51
2023-03-19T07:52:43.287Z,21.59
2023-03-19T07:53:43.312Z,21.59
2023-03-19T07:54:43.272Z,21.77
2023-03-19T07:55:43.286Z,21.98
2023-03-19T07:56:43.245Z,22.15
2023-03-19T07:57:43.226Z,22.31
2023-03-19T07:58:43.215Z,22.41
2023-03-19T07:59:43.218Z,22.42
2023-03-19T08:00:43.188Z,22.39
2023-03-19T08:01:43.177Z,22.41
2023-03-19T08:02:43.314Z,22.46
2023-03-19T08:03:43.148Z,22.52
2023-03-19T08:04:43.157Z,22.63
2023-03-19T08:05:43.155Z,22.66
2023-03-19T08:06:43.126Z,22.70
2023-03-19T08:07:43.098Z,22.76
2023-03-19T08:08:43.071Z,22.88
2023-03-19T08:09:43.088Z,23.01
2023-03-19T08:10:43.069Z,23.09
2023-03-19T08:11:43.061Z,23.06
2023-03-19T08:12:43.033Z,22.82
2023-03-19T08:13:43.021Z,22.81
2023-03-19T08:14:43.001Z,22.85
2023-03-19T08:15:43.011Z,22.88
2023-03-19T08:16:43.067Z,22.91
2023-03-19T08:17:42.962Z,22.99
2023-03-19T08:18:42.950Z,23.12
2023-03-19T08:19:42.935Z,23.15
2023-03-19T08:20:42.939Z,23.21
2023-03-19T08:21:42.920Z,23.23
2023-03-19T08:22:42.905Z,23.29
2023-03-19T08:23:42.897Z,23.31
2023-03-19T08:24:42.868Z,23.35
2023-03-19T08:25:42.867Z,23.34
2023-03-19T08:26:42.838Z,23.25
2023-03-19T08:27:42.830Z,23.14
2023-03-19T08:28:42.828Z,23.06
2023-03-19T08:29:42.804Z,22.93
2023-03-19T08:30:42.837Z,22.84
2023-03-19T08:31:42.768Z,22.79
2023-03-19T08:32:42.778Z,22.75
2023-03-19T08:33:42.754Z,22.67
2023-03-19T08:34:42.728Z,22.59
2023-03-19T08:35:42.774Z,22.35
2023-03-19T08:36:42.720Z,22.09
2023-03-19T08:37:42.709Z,21.90
2023-03-19T08:38:42.696Z,21.70
2023-03-19T08:39:42.679Z,21.52
2023-03-19T08:40:42.662Z,21.18
2023-03-19T08:41:42.647Z,20.71
2023-03-19T08:42:44.966Z,20.30
2023-03-19T08:43:42.610Z,20.15
2023-03-19T08:44:42.600Z,20.08
2023-03-19T08:45:42.602Z,20.12
2023-03-19T08:46:42.817Z,20.13
2023-03-19T08:47:42.571Z,20.12
2023-03-19T08:48:42.556Z,20.10
2023-03-19T08:49:42.540Z,20.01
2023-03-19T08:50:42.537Z,19.95
2023-03-19T08:51:42.501Z,19.89
2023-03-19T08:52:42.493Z,19.86
2023-03-19T08:53:42.481Z,19.72
2023-03-19T08:54:42.463Z,19.64
2023-03-19T08:55:42.463Z,19.65
2023-03-19T08:56:42.437Z,19.67
2023-03-19T08:57:42.435Z,19.70
2023-03-19T08:58:42.421Z,19.72
2023-03-19T08:59:42.403Z,19.79
2023-03-19T09:00:42.397Z,19.79
2023-03-19T09:01:42.404Z,19.78
2023-03-19T09:02:42.359Z,19.78
2023-03-19T09:03:42.355Z,19.76
2023-03-19T09:04:42.396Z,19.75
2023-03-19T09:05:42.333Z,19.68
2023-03-19T09:06:42.300Z,19.65
2023-03-19T09:07:42.300Z,19.67
2023-03-19T09:08:42.304Z,19.64
2023-03-19T09:09:42.271Z,19.64
2023-03-19T09:10:42.263Z,19.64
2023-03-19T09:11:42.248Z,19.65
2023-03-19T09:12:42.232Z,19.64
2023-03-19T09:13:42.229Z,19.60
2023-03-19T09:14:42.203Z,19.61
2023-03-19T09:15:42.259Z,19.60
2023-03-19T09:16:42.164Z,19.58
2023-03-19T09:17:42.164Z,19.61
2023-03-19T09:18:42.152Z,19.57
2023-03-19T09:19:42.136Z,19.55
2023-03-19T09:20:42.126Z,19.50
2023-03-19T09:21:42.122Z,19.45
2023-03-19T09:22:42.094Z,19.42
2023-03-19T09:23:42.103Z,19.42
2023-03-19T09:24:42.079Z,19.40
2023-03-19T09:25:42.065Z,19.40
2023-03-19T09:26:42.038Z,19.39
2023-03-19T09:27:42.038Z,19.32
2023-03-19T09:28:42.014Z,19.28
2023-03-19T09:29:42.002Z,19.27
2023-03-19T09:30:42.002Z,19.24
2023-03-19T09:31:42.064Z,19.24
2023-03-19T09:32:42.055Z,19.20
2023-03-19T09:33:41.983Z,19.21
2023-03-19T09:34:41.932Z,19.23
2023-03-19T09:35:41.924Z,19.21
2023-03-19T09:36:41.905Z,19.24
2023-03-19T09:37:41.897Z,19.28
2023-03-19T09:38:41.884Z,19.31
2023-03-19T09:39:41.866Z,19.34
2023-03-19T09:40:41.868Z,19.35
2023-03-19T09:41:41.836Z,19.39
2023-03-19T09:42:41.824Z,19.40
2023-03-19T09:43:41.833Z,19.39
2023-03-19T09:44:41.796Z,19.40
2023-03-19T09:45:41.797Z,19.40
2023-03-19T09:46:41.875Z,19.40
2023-03-19T09:47:41.765Z,19.42
2023-03-19T09:48:41.754Z,19.42
2023-03-19T09:49:41.725Z,19.45
2023-03-19T09:50:41.725Z,19.46
2023-03-19T09:51:41.728Z,19.47
2023-03-19T09:52:41.723Z,19.45
2023-03-19T09:53:41.686Z,19.43
2023-03-19T09:54:41.669Z,19.46
2023-03-19T09:55:41.665Z,19.50
2023-03-19T09:56:41.645Z,19.55
2023-03-19T09:57:41.647Z,19.62
2023-03-19T09:58:41.621Z,19.68
2023-03-19T09:59:41.606Z,19.75
2023-03-19T10:00:41.626Z,19.78
2023-03-19T10:01:41.615Z,19.83
2023-03-19T10:02:41.592Z,19.89
2023-03-19T10:03:41.633Z,19.92
2023-03-19T10:04:41.541Z,19.92
2023-03-19T10:05:41.547Z,19.95
2023-03-19T10:06:41.503Z,19.97
2023-03-19T10:07:41.512Z,19.97
2023-03-19T10:08:41.479Z,20.00
2023-03-19T10:09:41.486Z,20.02
2023-03-19T10:10:41.471Z,20.04
2023-03-19T10:11:41.447Z,20.01
2023-03-19T10:12:41.427Z,20.04
2023-03-19T10:13:41.439Z,20.05
2023-03-19T10:14:41.409Z,20.08
2023-03-19T10:15:41.421Z,20.10
2023-03-19T10:16:41.428Z,20.16
2023-03-19T10:17:41.358Z,20.19
2023-03-19T10:18:41.390Z,20.20
2023-03-19T10:19:41.518Z,20.25
2023-03-19T10:20:41.337Z,20.27
2023-03-19T10:21:41.310Z,20.31
2023-03-19T10:22:41.288Z,20.34
2023-03-19T10:23:41.300Z,20.37
2023-03-19T10:24:41.270Z,20.41
2023-03-19T10:25:41.702Z,20.44
2023-03-19T10:26:41.249Z,20.46
2023-03-19T10:27:41.229Z,20.50
2023-03-19T10:28:41.222Z,20.50
2023-03-19T10:29:41.214Z,20.53
2023-03-19T10:30:41.209Z,20.54
2023-03-19T10:31:41.242Z,20.58
2023-03-19T10:32:41.202Z,20.60
2023-03-19T10:33:41.162Z,20.64
2023-03-19T10:34:41.140Z,20.66
2023-03-19T10:35:41.201Z,20.72
2023-03-19T10:36:41.146Z,20.76
2023-03-19T10:37:41.103Z,20.81
2023-03-19T10:38:41.089Z,20.87
2023-03-19T10:39:41.078Z,20.87
2023-03-19T10:40:41.068Z,20.87
2023-03-19T10:41:41.052Z,20.85
2023-03-19T10:42:41.034Z,20.85
2023-03-19T10:43:41.025Z,20.83
2023-03-19T10:44:41.006Z,20.82
2023-03-19T10:45:41.552Z,20.81
2023-03-19T10:46:40.984Z,20.79
2023-03-19T10:47:40.978Z,20.79
2023-03-19T10:48:40.965Z,20.79
2023-03-19T10:49:40.959Z,20.83
2023-03-19T10:50:40.936Z,20.88
2023-03-19T10:51:40.923Z,20.91
2023-03-19T10:52:40.904Z,20.93
2023-03-19T10:53:40.895Z,20.96
2023-03-19T10:54:40.874Z,20.97
2023-03-19T10:55:40.875Z,20.98
2023-03-19T10:56:40.854Z,21.01
2023-03-19T10:57:40.837Z,21.01
2023-03-19T10:58:40.833Z,21.03
2023-03-19T10:59:40.816Z,21.05
2023-03-19T11:00:40.805Z,21.09
2023-03-19T11:01:40.795Z,21.08
2023-03-19T11:02:40.764Z,21.11
2023-03-19T11:03:40.773Z,21.13
2023-03-19T11:04:40.742Z,21.15
2023-03-19T11:05:40.733Z,21.18
2023-03-19T11:06:40.723Z,21.22
2023-03-19T11:07:40.702Z,21.27
2023-03-19T11:08:40.692Z,21.28
2023-03-19T11:09:40.684Z,21.33
2023-03-19T11:10:40.660Z,21.40
2023-03-19T11:11:40.652Z,21.51
2023-03-19T11:12:40.632Z,21.56
2023-03-19T11:13:40.624Z,21.67
2023-03-19T11:14:40.641Z,21.77
2023-03-19T11:15:40.616Z,21.85
2023-03-19T11:16:40.634Z,21.96
2023-03-19T11:17:40.581Z,22.02
2023-03-19T11:18:40.551Z,22.08
2023-03-19T11:19:40.541Z,22.11
2023-03-19T11:20:40.530Z,22.12
2023-03-19T11:21:40.524Z,22.09
2023-03-19T11:22:40.532Z,22.06
2023-03-19T11:23:40.481Z,22.01
2023-03-19T11:24:40.473Z,21.96
2023-03-19T11:25:40.530Z,21.94
2023-03-19T11:26:40.441Z,21.86
2023-03-19T11:27:40.431Z,21.83
2023-03-19T11:28:40.419Z,21.79
2023-03-19T11:29:40.408Z,21.75
2023-03-19T11:30:40.404Z,21.79
2023-03-19T11:31:40.435Z,21.79
2023-03-19T11:32:40.444Z,21.81
2023-03-19T11:33:40.350Z,21.79
2023-03-19T11:34:40.332Z,21.75
2023-03-19T11:35:40.381Z,21.77
2023-03-19T11:36:40.313Z,21.81
2023-03-19T11:37:40.292Z,21.83
2023-03-19T11:38:40.288Z,21.90
2023-03-19T11:39:40.281Z,21.94
2023-03-19T11:40:40.353Z,21.96
2023-03-19T11:41:40.252Z,21.96
2023-03-19T11:42:40.248Z,22.01
2023-03-19T11:43:40.215Z,22.04
2023-03-19T11:44:40.193Z,22.05
2023-03-19T11:45:42.101Z,22.08
2023-03-19T11:46:40.206Z,22.09
2023-03-19T11:47:40.194Z,22.11
2023-03-19T11:48:40.152Z,22.14
2023-03-19T11:49:40.142Z,22.15
2023-03-19T11:50:40.136Z,22.17
2023-03-19T11:51:40.140Z,22.19
2023-03-19T11:52:40.089Z,22.19
2023-03-19T11:53:40.096Z,22.15
2023-03-19T11:54:40.074Z,22.11
2023-03-19T11:55:40.085Z,22.02
2023-03-19T11:56:40.044Z,21.91
2023-03-19T11:57:40.038Z,21.86
2023-03-19T11:58:40.025Z,21.83
2023-03-19T11:59:40.027Z,21.83
2023-03-19T12:00:40.046Z,21.85
2023-03-19T12:01:40.971Z,21.82
2023-03-19T12:02:40.021Z,21.79
2023-03-19T12:03:39.998Z,21.77
2023-03-19T12:04:39.945Z,21.74
2023-03-19T12:05:39.928Z,21.67
2023-03-19T12:06:39.927Z,21.55
2023-03-19T12:07:39.908Z,21.48
2023-03-19T12:08:39.910Z,21.40
2023-03-19T12:09:39.865Z,21.36
2023-03-19T12:10:39.919Z,21.36
2023-03-19T12:11:39.853Z,21.37
2023-03-19T12:12:39.866Z,21.36
2023-03-19T12:13:39.908Z,21.40
2023-03-19T12:14:39.825Z,21.40
2023-03-19T12:15:39.872Z,21.42
2023-03-19T12:16:46.241Z,21.40
2023-03-19T12:17:40.759Z,21.38
2023-03-19T12:18:39.762Z,21.40
2023-03-19T12:19:39.808Z,21.42
2023-03-19T12:20:39.731Z,21.42
2023-03-19T12:21:39.748Z,21.43
2023-03-19T12:22:39.750Z,21.45
2023-03-19T12:23:39.695Z,21.45
2023-03-19T12:24:39.670Z,21.45
2023-03-19T12:25:39.680Z,21.40
2023-03-19T12:26:39.736Z,21.34
2023-03-19T12:27:39.662Z,21.31
2023-03-19T12:28:39.629Z,21.27
2023-03-19T12:29:39.628Z,21.24
2023-03-19T12:30:39.618Z,21.22
2023-03-19T12:31:39.583Z,21.21
2023-03-19T12:32:39.641Z,21.18
2023-03-19T12:33:39.547Z,21.16
2023-03-19T12:34:39.536Z,21.15
2023-03-19T12:35:39.626Z,21.09
2023-03-19T12:36:39.520Z,21.08
2023-03-19T12:37:39.488Z,21.03
2023-03-19T12:38:39.490Z,20.98
2023-03-19T12:39:39.477Z,20.94
2023-03-19T12:40:39.468Z,20.90
2023-03-19T12:41:39.440Z,20.85
2023-03-19T12:42:39.427Z,20.78
2023-03-19T12:43:39.418Z,20.66
2023-03-19T12:44:39.448Z,20.51
2023-03-19T12:45:39.390Z,20.38
2023-03-19T12:46:39.498Z,20.30
2023-03-19T12:47:39.357Z,20.23
2023-03-19T12:48:39.392Z,20.16
2023-03-19T12:49:39.464Z,20.10
2023-03-19T12:50:39.652Z,20.04
2023-03-19T12:51:39.380Z,19.95
2023-03-19T12:52:39.330Z,19.90
2023-03-19T12:53:39.335Z,19.87
2023-03-19T12:54:39.398Z,19.80
2023-03-19T12:55:39.347Z,19.75
2023-03-19T12:56:39.245Z,19.65
2023-03-19T12:57:39.238Z,19.61
2023-03-19T12:58:39.293Z,19.55
2023-03-19T12:59:39.191Z,19.52
2023-03-19T13:00:39.219Z,19.50
2023-03-19T13:01:39.314Z,19.45
2023-03-19T13:02:39.249Z,19.39
2023-03-19T13:03:39.150Z,19.32
2023-03-19T13:04:39.968Z,19.27
2023-03-19T13:05:39.202Z,19.24